Jorge Hernandez

Olheiro-Chefe - Union Magdalena
24 Set 2028
Domingo
Processo

Personalidade

Adaptabilidade (8) Ambição (3) Controvérsia (1) Lealdade (6) Pressão (14) Profissionalismo (19) Espírito Esportivo (14) Temperamento (17)

Perfil

Estilo de Treinamento Democrático
Licença Continental C
Determinação 3
Gestão de Pessoas 4
Motivação 10
Disciplina 9
Satisfação no Trabalho
100%
Fadiga
0%
Função Olheiro-Chefe
Salário 50.4K p/s
Contrato 14.03.2029

Desempenho

Comportamento Bom
Eficácia do Treinamento
29%
Desenvolvimento do Jogador
55%
Prevenção de Lesões
40%
Implementação Tática
20%

Eventos Recentes

Participou de uma reunião de recrutamento agora
Avaliou um jogador 7d atrás
Participou de uma reunião de recrutamento 7d atrás
Avaliou um jogador 7d atrás
Avaliou um jogador 7d atrás
Avaliou um jogador 7d atrás
Avaliou um jogador 7d atrás
Avaliou um jogador 14d atrás

Monitorando agora

155
Jogador Clube Status Habilidade Confiança Observado Última observação Último voto
Daniel Barrea Godoy Cruz Ativo 120 / 129 40% 3 23.09.2028 -
Alejo Dramisino Atlanta Ativo 120 / 120 40% 2 23.09.2028 -
Diego Gaitán Maipú Ativo 112 / 107 40% 1 23.09.2028 -
Nahuel Curcio Colón Ativo 120 / 120 40% 3 19.09.2028 -
John Córdoba Millonarios Ativo 116 / 123 40% 3 19.09.2028 -
Federico Álvarez Dinamo Tbilisi Ativo 108 / 98 40% 2 19.09.2028 -
Nicolás Retamar Ferro Carril Oeste Ativo 122 / 121 40% 2 17.09.2028 -
Tomás Escalante River Plate Ativo 126 / 121 40% 1 17.09.2028 -
Tomás Ferreyra Defensores Unidos Ativo 111 / 105 40% 1 17.09.2028 -
Antonio Galeano Remo Stars Ativo 127 / 118 40% 2 16.09.2028 -
Tobías Leiva Estudiantes Ativo 119 / 122 40% 1 16.09.2028 -
Diego García Danubio Ativo 115 / 119 40% 2 15.09.2028 -
Emiliano Gómez Boston River Ativo 124 / 119 40% 1 15.09.2028 -
Jerónimo Porto Lapegüe San Telmo Ativo 109 / 113 40% 1 15.09.2028 -
Matías Sosa Arsenal Ativo 108 / 112 40% 1 13.09.2028 -
Diogo Guzmán Montevideo City Torque Ativo 116 / 124 40% 1 13.09.2028 -
Sebastián Jaurena San Martín SJ Ativo 117 / 111 40% 1 13.09.2028 -
Santiago Gutiérrez Alvarado Ativo 107 / 110 40% 2 11.09.2028 -
Camilo Machado Madryn Ativo 110 / 107 40% 1 11.09.2028 -
Facundo Nadalín San Martín SJ Ativo 117 / 118 40% 1 11.09.2028 -
Gianluca Pugliese Güemes Ativo 107 / 104 40% 1 10.09.2028 -
Román Gamarra San Telmo Ativo 110 / 106 40% 1 10.09.2028 -
Ramiro Hernandes Belgrano Ativo 127 / 134 40% 1 10.09.2028 -
Patricio Moyano Defensores Ativo 121 / 122 40% 2 09.09.2028 -
Enzo González Defensores Ativo 106 / 107 40% 1 09.09.2028 -
Nicolás Ferreira Wanderers Ativo 119 / 119 40% 1 09.09.2028 -
Marco Miori Alvarado Ativo 110 / 120 40% 2 07.09.2028 -
Jeizon Ramírez Chacón Metropolitanos Ativo 98 / 95 40% 1 07.09.2028 -
Santiago Longo Belgrano Ativo 123 / 124 40% 1 07.09.2028 -
Lautaro Disanto Defensores Unidos Ativo 117 / 106 40% 2 05.09.2028 -
Esteban Obregón Montevideo City Torque Ativo 123 / 127 40% 1 05.09.2028 -
Enzo Hoyos Ferro Carril Oeste Ativo 123 / 112 40% 1 05.09.2028 -
Martín Campos Ferro Carril Oeste Ativo 126 / 122 40% 2 03.09.2028 -
Lucas Rodríguez Albion Ativo 114 / 113 40% 1 03.09.2028 -
Clemente Montes Santiago Wanderers Ativo 131 / 125 40% 1 03.09.2028 -
José Barreto Quilmes Ativo 114 / 112 40% 3 01.09.2028 -
Rafael Moreno Atletico Venezuela Ativo 115 / 105 40% 2 01.09.2028 -
Luciano Cosentino Wanderers Ativo 119 / 128 40% 2 31.08.2028 -
Santiago Moyano Central Córdoba SdE Ativo 117 / 113 40% 1 31.08.2028 -
Juan Carlos Castellano Deportivo La Guaira Ativo 104 / 103 40% 1 31.08.2028 -
Juan Sebastián Herrera Deportivo La Guaira Ativo 114 / 106 40% 4 30.08.2028 -
Franco Nicola Liverpool Montevideo Ativo 122 / 112 40% 1 30.08.2028 -
Emiliano Saliadarre Miramar Misiones Ativo 108 / 118 40% 2 28.08.2028 -
Tomás Pozzo Godoy Cruz Ativo 125 / 124 40% 1 28.08.2028 -
Walter Núñez Montevideo City Torque Ativo 120 / 114 40% 1 27.08.2028 -
Lautaro Calderón Asante Kotoko Ativo 109 / 104 40% 1 26.08.2028 -
Jonás Luna Wanderers Ativo 124 / 123 40% 1 26.08.2028 -
Ronaldo Peña Deportivo Lara Ativo 111 / 102 40% 2 25.08.2028 -
Abraham Bahachille Carabobo Ativo 111 / 103 40% 1 24.08.2028 -
Hakim Sulemana Ashanti Gold Ativo 118 / 111 40% 1 23.08.2028 -
Matías Viguet Maipú Ativo 118 / 110 40% 1 23.08.2028 -
Ignacio Yepez Cerrito Ativo 118 / 103 40% 1 21.08.2028 -
Santiago Sala Güemes Ativo 117 / 111 40% 2 20.08.2028 -
Mauro Valiente Estudiantes Ativo 112 / 123 40% 1 20.08.2028 -
Thiago Lauro Morón Ativo 112 / 119 40% 1 19.08.2028 -
Alessandro Arena Arezzo Ativo 135 / 112 40% 1 19.08.2028 -
Delvin Alfonzo Deportivo Tachira Ativo 114 / 110 40% 1 18.08.2028 -
Kike Pérez Venezia Ativo 136 / 146 40% 1 18.08.2028 -
Richard Figueroa Deportivo Lara Ativo 102 / 99 40% 1 14.08.2028 -
Idrissa Touré Monza Ativo 138 / 153 40% 1 14.08.2028 -
Vicente Poggi Godoy Cruz Ativo 120 / 123 40% 1 10.08.2028 -
Adam Phillips Northampton Town Ativo 123 / 108 40% 1 09.08.2028 -
Benicio Baker-Boaitey Mansfield Town Ativo 129 / 109 40% 1 08.08.2028 -
Atsuki Ito Bolton Wanderers Ativo 133 / 124 40% 1 08.08.2028 -
Carlos Gugenheim Grimsby Town Ativo 114 / 119 40% 1 08.08.2028 -
Max Conway Bolton Wanderers Ativo 125 / 132 40% 1 07.08.2028 -
Kane Wilson Milton Keynes Dons Ativo 120 / 120 40% 1 04.08.2028 -
Ar'jany Martha Rotherham United Ativo 126 / 120 40% 1 04.08.2028 -
Ethan Erhahon Cheltenham Town Ativo 121 / 119 40% 1 21.06.2028 -
Milton Castagna Walsall Ativo 100 / 107 40% 1 21.06.2028 -
Matthew Litherland Harrogate Town Ativo 112 / 114 40% 1 20.06.2028 -
George Earthy Reading Ativo 111 / 119 40% 1 20.06.2028 -
Jhon Cortez Barranquilla Rejeitado 79 / 99 69% 1 06.06.2028 Rejeitar
Matty Stevens AFC Wimbledon Ativo 90 / 97 40% 6 30.05.2027 -
Alassana Jatta Notts County Ativo 108 / 114 40% 1 23.05.2027 -
Ekain Orobengoa Real Sociedad Ativo 111 / 107 40% 3 22.05.2027 -
John Yeboah Venezia Ativo 118 / 131 40% 2 22.05.2027 -
Richard Koné Queens Park Rangers Ativo 113 / 117 40% 1 21.05.2027 -
Don Bolsius Ascoli Ativo 106 / 98 40% 1 20.05.2027 -
Rui Costa Port Vale Ativo 100 / 94 40% 3 15.05.2027 -
Filippo Distefano Empoli Ativo 127 / 125 40% 1 15.05.2027 -
Tyreece Campbell Charlton Athletic Ativo 121 / 116 40% 2 13.05.2027 -
Callum Lang Preston Ativo 111 / 123 40% 1 13.05.2027 -
Samuel Kalu Botev Plovdiv Ativo 127 / 125 40% 5 12.05.2027 -
Elijah Adebayo Luton Town Ativo 124 / 126 40% 1 11.05.2027 -
Ioannis Pittas CSKA Sofia Ativo 117 / 135 40% 1 06.05.2027 -
Ettore Gliozzi Mantova Ativo 131 / 114 40% 1 02.05.2027 -
Malik Mothersille Stockport County Ativo 109 / 100 40% 3 01.05.2027 -
Marco Tumminello Benevento Ativo 115 / 106 40% 2 29.04.2027 -
Stephen Humphrys Bradford City Ativo 108 / 120 40% 4 29.04.2027 -
Justo Giani Umraniyespor Ativo 116 / 133 40% 4 28.04.2027 -
Martin Sekulić Ural Ativo 100 / 98 40% 2 28.04.2027 -
Lorent Tolaj Plymouth Argyle Ativo 109 / 124 40% 3 26.04.2027 -
Sam Nombe Milton Keynes Dons Ativo 125 / 123 40% 3 26.04.2027 -
Federico Martínez MFK Ruzomberok Ativo 123 / 131 40% 2 25.04.2027 -
Aaron Drinan Swindon Town Ativo 101 / 85 40% 1 18.04.2027 -
Dale Taylor Blackpool Ativo 114 / 105 40% 4 17.04.2027 -
Aidomo Emakhu Oxford United Ativo 112 / 137 40% 1 14.04.2027 -
Tyrese Shade Burton Albion Ativo 86 / 111 40% 1 12.04.2027 -
Peter Itodo Metalist Ativo 101 / 114 40% 2 08.04.2027 -
Alberto Cerri Cesena Ativo 128 / 111 40% 1 07.04.2027 -
Eric Ramírez Ankaragucu Ativo 127 / 115 40% 1 07.04.2027 -
Giacomo Zecca Torres Ativo 112 / 87 40% 1 04.04.2027 -
Kyle Wootton Stockport County Ativo 136 / 131 40% 2 30.03.2027 -
Will Swan Bradford City Ativo 94 / 111 40% 1 30.03.2027 -
Job Ochieng Real Sociedad Ativo 112 / 121 40% 2 26.03.2027 -
Mees Rijks Bristol Rovers Ativo 118 / 102 40% 1 26.03.2027 -
Egas Cacintura Akhmat Grozny Ativo 127 / 104 40% 1 23.03.2027 -
Oleh Kozhushko Bukovyna Ativo 119 / 87 40% 1 20.03.2027 -
Oleksii Hutsuliak Polissia Ativo 121 / 137 40% 1 18.03.2027 -
Robertino Giacomini Panserraikos Ativo 98 / 105 40% 1 17.03.2027 -
Moussakoye Diallo Stade Malien Ativo 109 / 112 40% 1 17.03.2027 -
Luca Moro Padova Ativo 106 / 114 40% 1 16.03.2027 -
Anatole Abang USM Alger Ativo 115 / 104 40% 1 15.03.2027 -
Salah Mohsen El Masry Ativo 113 / 124 40% 2 14.03.2027 -
Samuel Tetteh Liberty Professionals Ativo 104 / 91 40% 1 12.03.2027 -
Wandile Duba ASO Chlef Ativo 93 / 101 40% 2 10.03.2027 -
Stiven Shpendi Empoli Ativo 127 / 131 40% 1 10.03.2027 -
Kamran Aliev SKA Khabarovsk Ativo 92 / 83 40% 1 08.03.2027 -
Ilja Safronov Rotor Ativo 105 / 110 40% 1 06.03.2027 -
Brayan Gil Baltika Ativo 137 / 111 40% 3 02.03.2027 -
Ondřej Lingr Korona Ativo 133 / 138 40% 1 01.03.2027 -
Nardin Mulahusejnović Vojvodina Ativo 108 / 129 40% 2 27.02.2027 -
Thierry Ambrose KV Kortrijk Ativo 115 / 131 40% 1 22.02.2027 -
Sam Dalby Bolton Wanderers Ativo 125 / 114 40% 1 13.02.2027 -
Vyacheslav Grulev Nizhniy Novgorod Ativo 108 / 121 40% 2 12.02.2027 -
Stanislav Ivanov Arda Ativo 129 / 124 40% 1 06.02.2027 -
Patrick Schmidt Tarxien Rainbows Ativo 95 / 93 40% 1 05.02.2027 -
David Ankeye Zeleznicar Pancevo Ativo 113 / 119 40% 1 03.02.2027 -
Yeangel Montero Naxxar Lions Ativo 98 / 96 40% 1 02.02.2027 -
Antony Alonso Deportivo Riestra Ativo 132 / 131 40% 1 01.02.2027 -
Marezi Portsmouth Ativo 114 / 112 40% 1 28.11.2026 -
Marcos Cuenca Zaragoza Ativo 96 / 120 40% 1 26.11.2026 -
Alejandro Piedrahita Deportivo Pereira Ativo 131 / 127 40% 1 26.11.2026 -
Lautaro Gordillo Colegiales Ativo 120 / 120 40% 1 23.11.2026 -
Agustín Gallo Tristán Suárez Ativo 112 / 117 40% 1 17.11.2026 -
Lucas Varaldo Morelia Ativo 132 / 111 40% 2 15.11.2026 -
José Alvarado Leon Ativo 118 / 108 40% 1 15.11.2026 -
Favio Cabral Mitre Ativo 122 / 109 40% 1 12.11.2026 -
Ignacio Russo Tigre Ativo 119 / 124 40% 1 04.11.2026 -
Renzo Reynaga Patronato Ativo 108 / 104 40% 1 02.11.2026 -
Augusto Berrondo Tristán Suárez Ativo 103 / 117 40% 1 31.10.2026 -
Wessam Abou Ali Columbus Crew Ativo 128 / 135 40% 1 30.10.2026 -
Mohamed-Ali Cho Hull City Ativo 122 / 150 40% 1 29.10.2026 -
Pedro Vite Pumas UNAM Ativo 108 / 112 40% 1 25.10.2026 -
Ramiro Ruiz Rodríguez Atlético Tucumán Ativo 124 / 116 40% 1 25.10.2026 -
Fabrizio Sartori Independiente Rivadavia Ativo 119 / 126 40% 1 24.10.2026 -
Lucas Acosta Liverpool Montevideo Ativo 109 / 110 40% 1 22.10.2026 -
Bénie Traoré New York City Ativo 115 / 107 40% 1 22.10.2026 -
Santiago Toloza O'Higgins Ativo 122 / 115 40% 1 21.10.2026 -
Rodrigo López Pumas UNAM Ativo 130 / 129 40% 1 20.10.2026 -
Franco Zapiola Platense Ativo 124 / 127 40% 1 20.10.2026 -
Alex Luna Instituto Ativo 139 / 120 40% 1 18.10.2026 -
Bryan González Guadalajara Ativo 131 / 124 40% 1 01.08.2026 -
Giovanni González River Plate Ativo 129 / 134 40% 1 01.08.2026 -